Time;durP1;ratioP1;P1;durP2;ratioP2;P2;SDS_P1;SDS_P2;PMS_P1;PMS_P2;Temp;Humidity;BMP_temperature;BMP_pressure;BME280_temperature;BME280_humidity;BME280_pressure;Samples;Min_cycle;Max_cycle;Signal;HPM_P1;HPM_P2
2024/02/20 00:02:25;;;;;;;1.70;0.97;;;22.50;64.20;;;;;;5056730;28;20540;-92
2024/02/20 00:04:52;;;;;;;2.33;1.50;;;22.50;63.40;;;;;;5056477;28;20448;-92
2024/02/20 00:07:19;;;;;;;2.20;1.13;;;22.50;63.40;;;;;;5056729;28;20473;-92
2024/02/20 00:09:47;;;;;;;1.60;1.10;;;22.40;63.30;;;;;;5056850;28;20473;-92
2024/02/20 00:12:15;;;;;;;2.97;1.80;;;22.40;63.30;;;;;;5056342;28;20447;-92
2024/02/20 00:14:43;;;;;;;1.60;1.10;;;22.50;63.50;;;;;;5056096;28;20862;-92
2024/02/20 00:17:10;;;;;;;2.43;1.50;;;22.40;63.30;;;;;;5056202;28;20503;-92
2024/02/20 00:19:37;;;;;;;2.93;1.80;;;22.40;63.40;;;;;;5056821;28;20808;-92
2024/02/20 00:22:04;;;;;;;3.03;1.30;;;22.40;64.20;;;;;;5056216;28;20536;-92
2024/02/20 00:24:31;;;;;;;2.07;1.07;;;22.40;63.40;;;;;;5056144;28;20449;-92
2024/02/20 00:26:58;;;;;;;2.50;1.30;;;22.40;63.30;;;;;;5056495;28;20457;-92
2024/02/20 00:29:26;;;;;;;1.83;1.20;;;22.30;63.20;;;;;;5056540;28;20440;-91
2024/02/20 00:31:53;;;;;;;1.63;1.13;;;22.40;63.40;;;;;;5056162;28;20518;-93
2024/02/20 00:34:20;;;;;;;1.80;1.40;;;22.30;63.30;;;;;;5056644;28;20445;-93
2024/02/20 00:36:47;;;;;;;2.83;1.50;;;22.30;63.30;;;;;;5055764;28;20891;-92
2024/02/20 00:39:14;;;;;;;2.17;1.27;;;22.30;63.30;;;;;;5056299;28;20437;-92
2024/02/20 00:41:41;;;;;;;2.13;1.17;;;22.30;63.30;;;;;;5056200;28;20442;-92
2024/02/20 00:44:09;;;;;;;1.93;1.20;;;22.30;63.30;;;;;;5056229;28;20844;-92
2024/02/20 00:46:37;;;;;;;3.20;1.50;;;22.30;63.30;;;;;;5056973;28;20967;-92
2024/02/20 00:49:04;;;;;;;2.10;1.47;;;22.30;63.30;;;;;;5056150;28;20900;-92
2024/02/20 00:51:32;;;;;;;4.30;1.17;;;22.30;63.30;;;;;;5056277;28;20441;-92
2024/02/20 00:53:59;;;;;;;2.67;1.40;;;22.30;63.30;;;;;;5056398;28;20507;-92
2024/02/20 00:56:26;;;;;;;2.27;1.30;;;22.30;63.30;;;;;;5056013;28;20473;-93
2024/02/20 00:58:52;;;;;;;1.90;1.30;;;22.30;63.30;;;;;;5055507;28;20465;-92
2024/02/20 01:01:19;;;;;;;2.00;1.20;;;22.20;63.40;;;;;;5055872;28;20468;-92
2024/02/20 01:03:49;;;;;;;2.10;1.20;;;22.30;63.30;;;;;;5056266;28;20528;-92
2024/02/20 01:06:16;;;;;;;1.87;1.00;;;22.20;63.20;;;;;;5055551;28;20557;-92
2024/02/20 01:08:43;;;;;;;2.63;1.27;;;22.20;63.20;;;;;;5056120;28;20811;-92
2024/02/20 01:11:10;;;;;;;1.97;1.17;;;22.20;63.20;;;;;;5055893;28;20540;-92
2024/02/20 01:13:38;;;;;;;1.80;1.40;;;22.20;63.20;;;;;;5055829;28;20909;-93
2024/02/20 01:16:06;;;;;;;2.70;1.30;;;22.20;63.20;;;;;;5055933;28;20449;-92
2024/02/20 01:18:34;;;;;;;2.50;1.30;;;22.20;63.30;;;;;;5055804;28;20504;-92
2024/02/20 01:21:02;;;;;;;2.47;1.10;;;22.20;63.20;;;;;;5056937;28;20469;-92
2024/02/20 01:23:29;;;;;;;2.00;1.20;;;22.20;63.30;;;;;;5055895;28;20441;-92
2024/02/20 01:25:56;;;;;;;3.80;1.23;;;22.20;63.30;;;;;;5055743;28;20512;-93
2024/02/20 01:28:23;;;;;;;2.20;1.40;;;22.10;63.20;;;;;;5076947;28;20437;-93
2024/02/20 01:30:51;;;;;;;2.50;1.43;;;22.10;63.20;;;;;;5077602;28;20508;-92
2024/02/20 01:33:18;;;;;;;1.97;1.27;;;22.10;63.10;;;;;;5059155;28;20516;-92
2024/02/20 01:35:45;;;;;;;3.70;1.27;;;22.20;63.30;;;;;;5056186;28;20491;-92
2024/02/20 01:38:13;;;;;;;1.90;1.00;;;22.20;63.30;;;;;;5055059;28;20568;-92
2024/02/20 01:40:40;;;;;;;2.43;1.30;;;22.10;63.20;;;;;;5054997;28;20457;-91
2024/02/20 01:43:07;;;;;;;2.10;1.10;;;22.10;63.30;;;;;;5055284;28;20444;-92
2024/02/20 01:45:34;;;;;;;2.03;1.23;;;22.10;63.30;;;;;;5054742;28;20437;-92
2024/02/20 01:48:03;;;;;;;2.30;1.23;;;22.10;63.10;;;;;;5055609;28;20445;-91
2024/02/20 01:50:34;;;;;;;3.10;1.40;;;22.10;63.20;;;;;;5055385;28;20524;-92
2024/02/20 01:53:02;;;;;;;2.00;1.23;;;22.20;63.30;;;;;;5055010;28;20441;-92
2024/02/20 01:55:30;;;;;;;2.17;1.37;;;22.20;63.30;;;;;;5055616;28;20832;-92
2024/02/20 01:57:57;;;;;;;2.33;1.20;;;22.20;63.20;;;;;;5055222;28;20484;-91
2024/02/20 02:00:24;;;;;;;2.10;1.23;;;22.20;63.20;;;;;;5055087;28;20441;-91
2024/02/20 02:02:52;;;;;;;2.53;1.53;;;22.20;63.10;;;;;;5055491;28;20442;-92
2024/02/20 02:05:20;;;;;;;2.90;1.20;;;22.20;63.10;;;;;;5056826;28;20442;-92
2024/02/20 02:07:48;;;;;;;2.10;1.13;;;22.20;63.10;;;;;;5055718;28;20541;-91
2024/02/20 02:10:15;;;;;;;1.70;1.03;;;22.20;63.00;;;;;;5054942;28;20832;-91
2024/02/20 02:12:44;;;;;;;2.03;1.20;;;22.20;63.00;;;;;;5054618;28;20532;-92
2024/02/20 02:15:11;;;;;;;2.63;1.47;;;22.20;63.00;;;;;;5055438;28;20441;-92
2024/02/20 02:17:38;;;;;;;1.87;1.10;;;22.20;63.00;;;;;;5055853;28;20552;-91
2024/02/20 02:20:06;;;;;;;2.20;1.50;;;22.20;62.90;;;;;;5054731;28;20512;-91
2024/02/20 02:22:33;;;;;;;2.10;1.43;;;22.20;62.80;;;;;;5055133;28;20448;-93
2024/02/20 02:25:00;;;;;;;1.70;1.00;;;22.40;63.10;;;;;;5055223;28;20528;-92
2024/02/20 02:27:28;;;;;;;2.67;1.30;;;22.30;62.90;;;;;;5055075;28;20540;-91
2024/02/20 02:29:55;;;;;;;2.00;1.40;;;22.30;62.80;;;;;;5054825;28;20441;-91
2024/02/20 02:32:24;;;;;;;3.03;1.40;;;22.30;63.80;;;;;;5054985;28;20449;-92
2024/02/20 02:34:51;;;;;;;1.80;0.90;;;22.30;62.90;;;;;;5055168;28;20532;-91
2024/02/20 02:37:18;;;;;;;2.60;1.53;;;22.30;62.80;;;;;;5054608;28;20441;-91
2024/02/20 02:39:45;;;;;;;2.20;1.50;;;22.30;63.60;;;;;;5054963;28;20964;-91
2024/02/20 02:42:12;;;;;;;2.83;1.50;;;22.30;62.80;;;;;;5054464;28;20473;-91
2024/02/20 02:44:40;;;;;;;2.10;1.20;;;22.30;62.70;;;;;;5054406;28;20429;-91
2024/02/20 02:47:07;;;;;;;2.73;1.40;;;22.30;62.70;;;;;;5054614;28;20920;-91
2024/02/20 02:49:34;;;;;;;2.47;1.33;;;22.30;62.60;;;;;;5054272;28;20886;-91
2024/02/20 02:52:01;;;;;;;2.60;1.37;;;22.30;62.70;;;;;;5054636;28;20466;-91
2024/02/20 02:54:29;;;;;;;2.40;1.30;;;22.40;62.70;;;;;;5054549;28;20438;-90
2024/02/20 02:56:57;;;;;;;2.13;1.50;;;22.30;62.60;;;;;;5057827;28;20464;-91
2024/02/20 02:59:24;;;;;;;3.03;1.50;;;22.40;62.70;;;;;;5058223;28;20481;-90
2024/02/20 03:01:52;;;;;;;3.00;1.67;;;22.30;62.60;;;;;;5058185;28;20883;-92
2024/02/20 03:04:19;;;;;;;2.87;1.57;;;22.30;62.50;;;;;;5058023;28;20520;-92
2024/02/20 03:06:47;;;;;;;2.50;1.77;;;22.30;62.50;;;;;;5074058;28;20440;-92
2024/02/20 03:09:15;;;;;;;2.30;1.20;;;22.30;62.50;;;;;;5081333;28;20467;-91
2024/02/20 03:11:42;;;;;;;2.10;1.50;;;22.30;62.50;;;;;;5071060;28;20444;-92
2024/02/20 03:14:10;;;;;;;2.77;1.10;;;22.40;62.60;;;;;;5058050;28;20966;-91
2024/02/20 03:16:37;;;;;;;2.17;1.37;;;22.30;62.40;;;;;;5057562;28;20441;-92
2024/02/20 03:19:06;;;;;;;2.33;1.27;;;22.40;62.50;;;;;;5057202;28;20997;-92
2024/02/20 03:21:33;;;;;;;2.07;1.20;;;22.40;62.50;;;;;;5057636;28;20522;-91
2024/02/20 03:24:00;;;;;;;2.67;1.40;;;22.40;62.50;;;;;;5057233;28;20869;-92
2024/02/20 03:26:27;;;;;;;1.83;1.07;;;22.40;62.40;;;;;;5057390;28;20437;-92
2024/02/20 03:28:54;;;;;;;2.43;1.40;;;22.40;62.40;;;;;;5058077;28;20452;-92
2024/02/20 03:31:23;;;;;;;2.90;1.20;;;22.40;62.40;;;;;;5057504;28;20797;-92
2024/02/20 03:33:50;;;;;;;2.73;1.30;;;22.40;62.40;;;;;;5058376;28;20448;-92
2024/02/20 03:36:19;;;;;;;2.20;1.10;;;22.40;62.40;;;;;;5080878;28;20513;-92
2024/02/20 03:38:45;;;;;;;2.60;1.63;;;22.40;62.40;;;;;;5080803;28;20492;-92
2024/02/20 03:41:12;;;;;;;2.47;1.40;;;22.40;62.30;;;;;;5079127;28;20469;-92
2024/02/20 03:43:39;;;;;;;3.13;1.67;;;22.40;62.30;;;;;;5057887;28;20516;-92
2024/02/20 03:46:07;;;;;;;3.23;1.50;;;22.50;62.30;;;;;;5057460;28;20433;-92
2024/02/20 03:48:34;;;;;;;2.33;1.43;;;22.50;62.40;;;;;;5057238;28;20481;-92
2024/02/20 03:51:01;;;;;;;3.53;1.60;;;22.40;62.30;;;;;;5056633;28;20442;-91
2024/02/20 03:53:29;;;;;;;2.57;1.27;;;22.40;62.20;;;;;;5057025;28;20959;-92
2024/02/20 03:55:56;;;;;;;2.30;1.20;;;22.40;63.10;;;;;;5056868;28;20470;-93
2024/02/20 03:58:23;;;;;;;2.47;1.10;;;22.40;62.30;;;;;;5057643;28;20566;-93
2024/02/20 04:00:50;;;;;;;2.10;1.30;;;22.50;62.40;;;;;;5057471;28;20445;-92
2024/02/20 04:03:17;;;;;;;2.13;1.20;;;22.40;62.20;;;;;;5056686;28;21023;-93
2024/02/20 04:05:43;;;;;;;2.30;1.20;;;22.40;62.20;;;;;;5056458;28;20444;-91
2024/02/20 04:08:09;;;;;;;3.70;1.53;;;22.40;62.20;;;;;;5056549;28;20437;-92
2024/02/20 04:10:37;;;;;;;3.50;1.20;;;22.40;62.20;;;;;;5056482;28;20468;-93
2024/02/20 04:13:05;;;;;;;2.90;1.50;;;22.40;62.20;;;;;;5056791;28;20690;-92
2024/02/20 04:15:33;;;;;;;2.20;1.40;;;22.40;62.10;;;;;;5056893;28;20448;-92
2024/02/20 04:18:00;;;;;;;3.40;1.37;;;22.40;62.20;;;;;;5056923;28;20476;-92
2024/02/20 04:20:27;;;;;;;2.60;1.30;;;22.40;62.10;;;;;;5056770;28;21008;-92
2024/02/20 04:22:53;;;;;;;1.93;1.40;;;22.40;62.20;;;;;;5056260;28;21030;-92
2024/02/20 04:25:20;;;;;;;1.90;1.27;;;22.40;62.10;;;;;;5056453;28;20472;-92
2024/02/20 04:27:50;;;;;;;2.27;1.57;;;22.40;62.20;;;;;;5057829;28;20457;-92
2024/02/20 04:30:17;;;;;;;2.27;1.30;;;22.40;62.30;;;;;;5056704;28;20453;-92
2024/02/20 04:32:44;;;;;;;2.30;1.20;;;22.40;62.30;;;;;;5056403;28;20452;-92
2024/02/20 04:35:11;;;;;;;4.03;1.47;;;22.40;63.20;;;;;;5055975;28;20533;-92
2024/02/20 04:37:38;;;;;;;2.47;1.23;;;22.40;62.30;;;;;;5056321;28;20449;-92
2024/02/20 04:40:07;;;;;;;2.77;1.40;;;22.30;62.10;;;;;;5055683;28;20491;-92
2024/02/20 04:42:33;;;;;;;4.10;1.50;;;22.30;62.10;;;;;;5073499;28;20442;-92
2024/02/20 04:45:02;;;;;;;2.33;1.40;;;22.30;62.10;;;;;;5078808;28;20458;-92
2024/02/20 04:47:30;;;;;;;2.73;1.30;;;22.40;62.20;;;;;;5064215;28;20946;-92
2024/02/20 04:49:57;;;;;;;2.00;1.40;;;22.30;62.10;;;;;;5056315;28;20499;-92
2024/02/20 04:52:24;;;;;;;2.90;1.50;;;22.40;62.20;;;;;;5055657;28;20954;-92
2024/02/20 04:54:52;;;;;;;2.70;1.50;;;22.40;62.20;;;;;;5055739;28;20470;-92
2024/02/20 04:57:19;;;;;;;2.00;1.23;;;22.40;62.20;;;;;;5055673;28;20533;-93
2024/02/20 04:59:46;;;;;;;2.40;1.33;;;22.40;62.10;;;;;;5056137;28;20481;-92
2024/02/20 05:02:14;;;;;;;2.63;1.57;;;22.30;61.90;;;;;;5055408;28;20529;-92
2024/02/20 05:04:41;;;;;;;2.33;1.17;;;22.40;62.10;;;;;;5055643;28;20441;-92
2024/02/20 05:07:08;;;;;;;3.60;1.40;;;22.40;62.00;;;;;;5055903;28;20807;-92
2024/02/20 05:09:35;;;;;;;3.40;1.43;;;22.40;61.90;;;;;;5056302;28;20556;-92
2024/02/20 05:12:02;;;;;;;1.77;1.03;;;22.40;61.90;;;;;;5055990;28;20445;-92
2024/02/20 05:14:28;;;;;;;1.77;1.20;;;22.40;61.90;;;;;;5055602;28;20456;-92
2024/02/20 05:16:55;;;;;;;1.80;1.10;;;22.40;61.80;;;;;;5055649;28;20449;-92
2024/02/20 05:19:24;;;;;;;1.90;1.23;;;22.40;61.80;;;;;;5054489;28;20499;-93
2024/02/20 05:21:50;;;;;;;3.80;1.30;;;22.40;61.80;;;;;;5055155;28;20500;-92
2024/02/20 05:24:17;;;;;;;3.37;1.60;;;22.50;61.80;;;;;;5056065;28;20465;-93
2024/02/20 05:26:44;;;;;;;4.60;1.67;;;22.40;61.70;;;;;;5056742;28;20788;-93
2024/02/20 05:29:11;;;;;;;2.60;1.23;;;22.50;61.80;;;;;;5055506;28;20520;-93
2024/02/20 05:31:38;;;;;;;2.37;1.20;;;22.50;61.80;;;;;;5060659;28;20441;-93
2024/02/20 05:34:06;;;;;;;2.70;1.50;;;22.50;61.70;;;;;;5060115;28;20533;-93
2024/02/20 05:36:35;;;;;;;2.67;1.17;;;22.50;61.70;;;;;;5060211;28;20936;-91
2024/02/20 05:39:02;;;;;;;2.40;1.43;;;22.50;61.50;;;;;;5061455;28;20473;-91
2024/02/20 05:41:30;;;;;;;3.00;1.40;;;22.50;62.40;;;;;;5060826;28;20449;-91
2024/02/20 05:43:59;;;;;;;2.03;1.37;;;22.50;61.40;;;;;;5060634;28;20461;-91
2024/02/20 05:46:29;;;;;;;1.87;1.13;;;22.50;61.50;;;;;;5060333;28;20445;-91
2024/02/20 05:48:57;;;;;;;3.00;1.30;;;22.50;61.40;;;;;;5059860;28;20473;-91
2024/02/20 05:51:25;;;;;;;2.87;1.43;;;22.50;61.40;;;;;;5060764;28;20532;-91
2024/02/20 05:53:53;;;;;;;3.17;1.20;;;22.60;61.50;;;;;;5060675;28;20476;-92
2024/02/20 05:56:21;;;;;;;2.10;1.40;;;22.60;61.40;;;;;;5060473;28;20827;-91
2024/02/20 05:58:48;;;;;;;1.80;1.10;;;22.60;61.40;;;;;;5061630;28;20475;-91
2024/02/20 06:01:15;;;;;;;2.10;1.20;;;22.60;61.40;;;;;;5061534;28;20493;-91
2024/02/20 06:03:43;;;;;;;2.00;1.10;;;22.60;61.30;;;;;;5061735;28;20417;-91
2024/02/20 06:06:28;;;;;;;2.43;1.43;;;22.70;61.40;;;;;;5060834;28;20441;-92
2024/02/20 06:08:58;;;;;;;2.80;1.83;;;22.60;61.30;;;;;;5061548;28;20511;-92
2024/02/20 06:11:26;;;;;;;2.67;1.43;;;22.70;62.20;;;;;;5061915;28;20450;-92
2024/02/20 06:13:53;;;;;;;3.40;1.67;;;22.60;61.30;;;;;;5042815;28;20452;-92
2024/02/20 06:16:21;;;;;;;2.47;1.20;;;22.60;61.20;;;;;;5059799;28;20446;-93
2024/02/20 06:18:48;;;;;;;2.50;1.30;;;22.70;61.30;;;;;;5060529;28;20475;-92
2024/02/20 06:21:15;;;;;;;3.47;1.80;;;22.70;61.30;;;;;;5070187;28;20428;-93
2024/02/20 06:23:43;;;;;;;2.00;1.10;;;22.70;61.20;;;;;;5077903;28;20448;-92
2024/02/20 06:26:11;;;;;;;2.37;1.37;;;22.70;61.10;;;;;;5072224;28;20449;-92
2024/02/20 06:28:39;;;;;;;4.30;1.80;;;22.70;61.20;;;;;;5059330;28;20449;-92
2024/02/20 06:31:07;;;;;;;2.70;1.60;;;22.70;61.10;;;;;;5060452;28;20456;-92
2024/02/20 06:33:49;;;;;;;3.37;1.50;;;22.70;61.10;;;;;;5072404;28;20428;-92
2024/02/20 06:36:18;;;;;;;2.20;1.27;;;22.70;61.10;;;;;;5071678;28;20443;-91
2024/02/20 06:38:44;;;;;;;4.10;1.50;;;22.70;61.10;;;;;;5063893;28;20568;-91
2024/02/20 06:41:14;;;;;;;2.53;1.20;;;22.70;61.00;;;;;;5063269;28;20512;-91
2024/02/20 06:43:39;;;;;;;2.20;1.30;;;22.70;61.10;;;;;;5064767;28;20548;-92
2024/02/20 06:46:06;;;;;;;2.60;1.30;;;22.70;61.10;;;;;;5064500;28;20965;-92
2024/02/20 06:48:33;;;;;;;2.20;1.40;;;22.70;61.10;;;;;;5064339;28;20194;-92
2024/02/20 06:51:01;;;;;;;2.40;1.37;;;22.70;61.10;;;;;;5064258;28;20538;-91
2024/02/20 06:53:27;;;;;;;3.10;1.30;;;22.70;61.10;;;;;;5060729;28;20751;-91
2024/02/20 06:55:54;;;;;;;2.47;1.47;;;22.80;61.10;;;;;;5058554;28;20476;-92
2024/02/20 06:58:22;;;;;;;2.53;1.40;;;22.70;61.00;;;;;;5057985;28;20452;-90
2024/02/20 07:00:49;;;;;;;2.97;1.57;;;22.70;61.00;;;;;;5074077;28;20568;-92
2024/02/20 07:03:18;;;;;;;2.93;1.30;;;22.70;60.90;;;;;;5058049;28;20925;-88
2024/02/20 07:06:06;;;;;;;2.20;1.37;;;22.70;61.00;;;;;;5058606;28;20441;-94
2024/02/20 07:08:33;;;;;;;2.60;1.47;;;22.70;61.20;;;;;;5058672;28;20437;-94
2024/02/20 07:11:01;;;;;;;2.13;1.30;;;22.70;61.20;;;;;;5058037;28;20587;-91
2024/02/20 07:13:29;;;;;;;3.47;1.57;;;22.70;61.10;;;;;;5057882;28;20453;-91
2024/02/20 07:16:03;;;;;;;2.50;1.60;;;22.70;61.20;;;;;;5058344;28;20528;-92
2024/02/20 07:18:30;;;;;;;2.57;1.40;;;22.80;62.30;;;;;;5058304;28;20450;-92
2024/02/20 07:20:57;;;;;;;3.20;1.70;;;22.70;61.30;;;;;;5057701;28;20481;-93
2024/02/20 07:23:24;;;;;;;3.57;1.70;;;22.80;61.40;;;;;;5058363;28;20852;-92
2024/02/20 07:25:51;;;;;;;2.53;1.33;;;22.80;61.50;;;;;;5057574;28;20525;-93
2024/02/20 07:28:18;;;;;;;3.40;1.63;;;22.80;61.60;;;;;;5057199;28;20524;-94
2024/02/20 07:30:46;;;;;;;3.57;1.40;;;22.80;61.70;;;;;;5057647;28;20540;-92
2024/02/20 07:33:13;;;;;;;3.70;1.60;;;22.80;61.70;;;;;;5057670;28;20441;-91
2024/02/20 07:35:40;;;;;;;3.50;1.73;;;22.80;61.80;;;;;;5058005;28;20441;-92
2024/02/20 07:38:07;;;;;;;4.10;2.03;;;22.80;61.80;;;;;;5057648;28;20537;-92
2024/02/20 07:40:34;;;;;;;2.30;1.57;;;22.80;61.80;;;;;;5056968;28;20580;-92
2024/02/20 07:43:01;;;;;;;3.80;1.40;;;22.80;61.90;;;;;;5056740;28;20528;-92
2024/02/20 07:45:28;;;;;;;2.30;1.43;;;22.80;61.90;;;;;;5057518;28;20465;-91
2024/02/20 07:47:56;;;;;;;2.47;1.60;;;22.80;62.00;;;;;;5057245;28;20457;-91
2024/02/20 07:50:23;;;;;;;2.83;1.50;;;22.80;62.00;;;;;;5039450;28;20950;-93
2024/02/20 07:52:50;;;;;;;2.97;1.50;;;22.80;62.00;;;;;;5057449;28;20536;-93
2024/02/20 07:55:18;;;;;;;3.50;1.83;;;22.90;62.20;;;;;;5057452;28;20469;-91
2024/02/20 07:57:45;;;;;;;3.53;1.80;;;22.80;61.90;;;;;;5074398;28;20452;-91
2024/02/20 08:00:13;;;;;;;5.90;1.77;;;22.90;62.20;;;;;;5080056;28;20507;-91
2024/02/20 08:02:39;;;;;;;3.00;1.37;;;22.80;62.10;;;;;;5064434;28;20437;-92
2024/02/20 08:05:13;;;;;;;4.07;1.77;;;22.80;63.30;;;;;;5058256;28;20804;-95
2024/02/20 08:07:41;;;;;;;11.50;2.10;;;22.80;62.20;;;;;;5057677;28;20446;-94
2024/02/20 08:10:11;;;;;;;4.40;2.17;;;22.70;60.60;;;;;;5059249;28;20587;-93
2024/02/20 08:12:38;;;;;;;8.20;2.33;;;22.70;60.80;;;;;;5075137;28;20437;-91
2024/02/20 08:18:27;;;;;;;4.23;1.63;;;22.80;62.00;;;;;;5077454;28;20436;-91
2024/02/20 08:20:55;;;;;;;4.03;1.50;;;22.70;62.10;;;;;;5058858;28;20489;-86
2024/02/20 08:23:22;;;;;;;3.87;1.43;;;22.80;62.20;;;;;;5056116;28;20456;-86
2024/02/20 08:25:49;;;;;;;3.60;1.87;;;22.80;62.30;;;;;;5051417;28;20445;-92
2024/02/20 08:28:16;;;;;;;3.10;1.40;;;22.80;62.20;;;;;;5054929;28;20794;-84
2024/02/20 08:30:45;;;;;;;3.10;1.50;;;22.80;62.30;;;;;;5054887;28;20457;-85
2024/02/20 08:33:11;;;;;;;2.40;1.27;;;22.80;62.10;;;;;;5055277;28;20457;-85
2024/02/20 08:35:39;;;;;;;6.00;1.87;;;22.90;62.30;;;;;;5051498;28;20506;-80
2024/02/20 08:38:07;;;;;;;3.73;1.77;;;22.90;61.20;;;;;;5053542;28;20803;-83
2024/02/20 08:40:34;;;;;;;6.93;2.13;;;22.90;61.40;;;;;;5054146;28;21002;-82
2024/02/20 08:43:01;;;;;;;3.30;2.40;;;22.80;61.50;;;;;;5063665;28;20442;-82
2024/02/20 08:45:28;;;;;;;4.07;1.50;;;22.80;62.80;;;;;;5058031;28;20888;-81
2024/02/20 08:47:55;;;;;;;3.23;1.33;;;22.90;62.00;;;;;;5053898;28;20835;-82
2024/02/20 08:50:21;;;;;;;5.87;1.73;;;22.80;61.70;;;;;;5055212;28;20852;-84
2024/02/20 08:52:48;;;;;;;3.47;1.90;;;22.80;61.10;;;;;;5065591;28;20425;-83
2024/02/20 08:55:16;;;;;;;3.37;1.80;;;22.90;61.60;;;;;;5058108;28;20468;-84
2024/02/20 08:57:43;;;;;;;5.70;1.70;;;22.90;61.80;;;;;;5054083;28;20460;-84
2024/02/20 09:00:12;;;;;;;3.90;2.07;;;22.90;61.80;;;;;;5054112;28;20495;-89
2024/02/20 09:02:38;;;;;;;4.30;1.50;;;22.90;61.80;;;;;;5054859;28;20453;-89
2024/02/20 09:05:06;;;;;;;4.10;2.20;;;22.90;61.90;;;;;;5066020;28;20833;-91
2024/02/20 09:07:33;;;;;;;4.57;1.80;;;22.90;61.90;;;;;;5058356;28;20440;-91
2024/02/20 09:09:59;;;;;;;5.93;1.43;;;22.90;61.80;;;;;;5054673;28;20473;-92
2024/02/20 09:12:27;;;;;;;4.60;1.63;;;22.90;62.00;;;;;;5054197;28;20924;-83
2024/02/20 09:14:54;;;;;;;5.40;1.93;;;22.90;62.00;;;;;;5053967;28;20946;-83
2024/02/20 09:17:21;;;;;;;6.17;1.43;;;22.90;62.10;;;;;;5054454;28;20970;-82
2024/02/20 09:19:48;;;;;;;5.73;1.70;;;22.90;62.10;;;;;;5053525;28;20489;-83
2024/02/20 09:22:15;;;;;;;3.37;1.80;;;23.00;62.00;;;;;;5054193;28;20453;-83
2024/02/20 09:24:42;;;;;;;3.73;1.67;;;22.90;62.10;;;;;;5050716;28;20936;-83
2024/02/20 09:27:09;;;;;;;5.93;1.80;;;22.90;62.00;;;;;;5052802;28;20520;-83
2024/02/20 09:29:37;;;;;;;4.70;1.60;;;23.00;62.10;;;;;;5052313;28;20477;-84
2024/02/20 09:32:04;;;;;;;2.87;1.57;;;22.90;61.90;;;;;;5052269;28;20441;-84
2024/02/20 09:34:31;;;;;;;9.10;2.03;;;22.90;61.90;;;;;;5051900;28;20477;-82
2024/02/20 09:36:58;;;;;;;3.93;1.73;;;22.90;61.80;;;;;;5061977;28;20497;-82
2024/02/20 09:39:25;;;;;;;6.83;2.03;;;22.90;61.80;;;;;;5066169;28;20480;-83
2024/02/20 09:41:52;;;;;;;4.53;2.13;;;22.90;61.90;;;;;;5061806;28;20866;-83
2024/02/20 09:44:20;;;;;;;3.23;1.70;;;22.90;61.70;;;;;;5051760;28;20446;-82
2024/02/20 09:46:53;;;;;;;2.87;1.87;;;22.90;61.80;;;;;;5051895;28;20437;-93
2024/02/20 09:49:20;;;;;;;3.10;1.73;;;23.00;61.90;;;;;;5051552;28;20446;-91
2024/02/20 09:51:48;;;;;;;3.70;1.57;;;23.00;61.80;;;;;;5051453;28;20437;-94
2024/02/20 09:54:15;;;;;;;3.20;1.40;;;23.00;61.90;;;;;;5050938;28;20813;-83
2024/02/20 09:56:43;;;;;;;3.77;1.50;;;23.00;61.80;;;;;;5051418;28;20469;-83
2024/02/20 09:59:10;;;;;;;6.47;2.10;;;23.00;61.80;;;;;;5052758;28;20433;-83
2024/02/20 10:01:37;;;;;;;3.57;2.00;;;23.00;61.70;;;;;;5053649;28;20485;-84
2024/02/20 10:04:08;;;;;;;2.47;1.50;;;23.00;61.70;;;;;;5053664;28;20437;-83
2024/02/20 10:06:35;;;;;;;4.77;1.67;;;23.00;61.60;;;;;;5052921;28;20433;-84
2024/02/20 10:09:02;;;;;;;5.00;1.83;;;23.00;61.70;;;;;;5052890;28;20464;-88
2024/02/20 10:11:29;;;;;;;3.80;1.97;;;23.00;61.70;;;;;;5053361;28;20531;-94
2024/02/20 10:13:56;;;;;;;3.43;1.80;;;23.00;61.70;;;;;;5053307;28;20437;-84
2024/02/20 10:16:24;;;;;;;2.13;1.23;;;23.00;61.70;;;;;;5035260;28;20449;-84
2024/02/20 10:18:58;;;;;;;3.33;1.70;;;23.00;61.70;;;;;;5053100;28;20853;-84
2024/02/20 10:21:26;;;;;;;4.17;1.90;;;23.00;61.60;;;;;;5052803;28;20980;-87
2024/02/20 10:24:04;;;;;;;3.07;1.70;;;23.20;61.80;;;;;;5053329;28;20440;-86
2024/02/20 10:26:33;;;;;;;3.73;1.67;;;23.10;62.60;;;;;;5053417;28;20437;-91
2024/02/20 10:29:01;;;;;;;2.37;1.60;;;23.10;61.70;;;;;;5053107;28;20433;-83
2024/02/20 10:31:27;;;;;;;2.33;1.73;;;23.10;61.60;;;;;;5053097;28;20429;-84
2024/02/20 10:33:54;;;;;;;3.90;1.67;;;23.10;61.60;;;;;;5053896;28;20922;-83
2024/02/20 10:36:22;;;;;;;5.57;1.87;;;23.10;61.50;;;;;;5053706;28;20460;-84
2024/02/20 10:38:51;;;;;;;4.17;1.60;;;23.20;61.60;;;;;;5052939;28;21098;-84
2024/02/20 10:41:19;;;;;;;2.97;1.67;;;23.20;61.60;;;;;;5053082;28;20489;-84
2024/02/20 10:43:47;;;;;;;4.90;2.07;;;23.20;61.50;;;;;;5053172;28;20444;-84
2024/02/20 10:46:14;;;;;;;3.23;1.87;;;23.20;61.50;;;;;;5053123;28;21002;-84
2024/02/20 10:48:45;;;;;;;3.27;1.80;;;23.20;61.50;;;;;;5053277;28;20441;-91
2024/02/20 10:51:13;;;;;;;3.00;2.10;;;23.30;61.60;;;;;;5053170;28;20951;-92
2024/02/20 10:53:42;;;;;;;3.57;1.83;;;23.20;61.40;;;;;;5053298;28;20434;-92
2024/02/20 10:56:11;;;;;;;3.03;2.10;;;23.20;61.40;;;;;;5053099;28;20477;-85
2024/02/20 10:58:39;;;;;;;2.53;1.80;;;23.20;61.50;;;;;;5053136;28;20780;-84
2024/02/20 11:01:09;;;;;;;3.87;1.97;;;23.20;61.50;;;;;;5052569;28;20488;-93
2024/02/20 11:03:37;;;;;;;3.40;2.37;;;23.20;61.40;;;;;;5052705;28;20437;-92
2024/02/20 11:06:04;;;;;;;3.17;1.90;;;23.20;61.40;;;;;;5053394;28;20445;-83
2024/02/20 11:08:31;;;;;;;3.30;2.03;;;23.20;61.40;;;;;;5052994;28;20520;-83
2024/02/20 11:11:13;;;;;;;2.50;1.60;;;23.20;61.50;;;;;;5052962;28;20442;-95
2024/02/20 11:13:41;;;;;;;2.50;1.53;;;23.10;61.40;;;;;;5056999;28;20443;-83
2024/02/20 11:16:12;;;;;;;3.27;2.10;;;23.10;61.40;;;;;;5054592;28;20448;-84
2024/02/20 11:18:39;;;;;;;2.30;1.83;;;23.10;61.40;;;;;;5056354;28;20524;-94
2024/02/20 11:21:06;;;;;;;2.70;1.60;;;23.10;61.50;;;;;;5055547;28;20579;-84
2024/02/20 11:23:35;;;;;;;3.10;1.70;;;23.10;61.40;;;;;;5055989;28;20452;-95
2024/02/20 11:26:08;;;;;;;3.43;1.73;;;23.10;61.40;;;;;;5055941;28;20441;-84
2024/02/20 11:28:37;;;;;;;4.03;1.93;;;23.10;61.40;;;;;;5056170;28;20473;-85
2024/02/20 11:31:05;;;;;;;2.50;1.83;;;23.10;61.40;;;;;;5055821;28;20445;-85
2024/02/20 11:33:34;;;;;;;3.63;1.40;;;23.10;61.40;;;;;;5055967;28;20537;-84
2024/02/20 11:36:01;;;;;;;5.40;1.80;;;23.10;61.40;;;;;;5056090;28;20531;-84
2024/02/20 11:38:28;;;;;;;2.37;1.60;;;23.10;61.40;;;;;;5055675;28;20443;-84
2024/02/20 11:40:57;;;;;;;3.50;1.80;;;23.10;61.40;;;;;;5055714;28;20485;-84
2024/02/20 11:43:25;;;;;;;2.43;1.93;;;23.20;61.40;;;;;;5055547;28;20445;-83
2024/02/20 11:45:59;;;;;;;3.50;1.80;;;23.10;61.30;;;;;;5056003;28;20441;-84
2024/02/20 11:48:26;;;;;;;2.70;1.93;;;23.20;61.40;;;;;;5055743;28;20797;-84
2024/02/20 11:50:56;;;;;;;2.50;1.53;;;23.20;61.40;;;;;;5055513;28;20444;-84
2024/02/20 11:53:23;;;;;;;3.33;1.87;;;23.10;61.40;;;;;;5055453;28;20442;-84
2024/02/20 11:55:53;;;;;;;2.00;1.40;;;23.10;61.30;;;;;;5055783;28;20515;-84
2024/02/20 11:58:24;;;;;;;2.40;1.87;;;23.10;62.20;;;;;;5055215;28;20448;-84
2024/02/20 12:00:54;;;;;;;3.30;2.00;;;23.10;61.30;;;;;;5055195;28;20851;-83
2024/02/20 12:03:30;;;;;;;3.23;1.70;;;23.10;61.40;;;;;;5055583;28;20495;-84
2024/02/20 12:06:01;;;;;;;2.17;1.40;;;23.20;61.40;;;;;;5055630;28;20429;-83
2024/02/20 12:08:33;;;;;;;2.97;1.77;;;23.20;61.30;;;;;;5055516;28;20438;-94
2024/02/20 12:11:05;;;;;;;3.83;1.93;;;23.20;61.30;;;;;;5055593;28;20441;-84
2024/02/20 12:13:32;;;;;;;2.00;1.53;;;23.20;61.30;;;;;;5055692;28;20442;-86
2024/02/20 12:15:59;;;;;;;4.10;1.87;;;23.20;61.30;;;;;;5055798;28;20533;-94
2024/02/20 12:18:29;;;;;;;3.23;1.97;;;23.20;61.30;;;;;;5055875;28;20439;-93
2024/02/20 12:21:05;;;;;;;2.53;1.70;;;23.20;61.30;;;;;;5055965;28;20805;-84
2024/02/20 12:23:32;;;;;;;4.70;2.03;;;23.20;61.30;;;;;;5056163;28;20449;-84
2024/02/20 12:26:05;;;;;;;5.10;2.03;;;23.20;61.30;;;;;;5056030;28;20444;-85
2024/02/20 12:28:32;;;;;;;3.20;1.97;;;23.20;61.20;;;;;;5055285;28;20441;-94
2024/02/20 12:30:58;;;;;;;5.40;2.50;;;23.20;61.30;;;;;;5055861;28;20452;-93
2024/02/20 12:33:26;;;;;;;3.63;1.60;;;23.20;62.10;;;;;;5055927;28;20437;-86
2024/02/20 12:35:55;;;;;;;4.87;2.53;;;23.20;61.20;;;;;;5055841;28;20437;-89
2024/02/20 12:38:22;;;;;;;4.20;2.17;;;23.20;61.20;;;;;;5055298;28;20774;-83
2024/02/20 12:40:49;;;;;;;2.43;1.87;;;23.20;61.20;;;;;;5055626;28;20477;-88
2024/02/20 12:43:16;;;;;;;2.10;1.50;;;23.20;61.20;;;;;;5055742;28;20437;-93
2024/02/20 12:45:42;;;;;;;2.30;1.40;;;23.20;61.20;;;;;;5067113;28;20524;-83
2024/02/20 12:48:09;;;;;;;3.20;1.87;;;23.20;61.20;;;;;;5074063;28;20505;-83
2024/02/20 12:50:38;;;;;;;3.43;2.10;;;23.20;61.30;;;;;;5071369;28;20841;-83
2024/02/20 12:53:06;;;;;;;3.70;1.80;;;23.20;61.30;;;;;;5069745;28;20505;-83
2024/02/20 12:55:35;;;;;;;2.27;1.60;;;23.30;61.30;;;;;;5073851;28;20556;-84